Las Cruces, NM

4:34 AM MST on February 11, 2016 (GMT -0700)
CRN | | Change Station
CLOSE
Current Station
Personal Weather Station
Location: Las Cruces, NM
Elevation: 4327 ft
Nearby Weather Stations

Elev 4327 ft 32.61 °N, 106.74 °W | Updated 34 minutes ago

Clear
Clear
0.0 °F
Feels Like 0.0 °F
N
1.0
Wind Variable Wind from North
Gusts 4.0 mph

Today
High -- | Low -- °F
--% Chance of Precip.
Yesterday
High -- | Low -- °F
Precip. -- in
Pressure 30.25 in
Visibility 10.0 miles
Clouds Clear
Dew Point 0.0 °F
Humidity 45%
Rainfall in
Snow Depth Not available.
6:54 AM 5:48 PM
Waxing Crescent, 11% visible
METAR KLRU 111115Z AUTO 33007KT 10SM CLR 01/M09 A3025 RMK AO2 T00061090
Pressure 30.25 in
Visibility 10.0 miles
Clouds Clear
Dew Point 0.0 °F
Humidity 45%
Rainfall in
Snow Depth Not available.
6:54 AM 5:48 PM
Waxing Crescent, 11% visible
METAR KLRU 111115Z AUTO 33007KT 10SM CLR 01/M09 A3025 RMK AO2 T00061090

10-Day Weather Forecast

Almanac

Astronomy

Feb. 11, 2016 Rise Set
Actual Time
Civil Twilight
Nautical Twilight
Astronomical Twilight
Moon
Length of Visible Light
Length of Day
Tomorrow will be .
, % of the Moon is Illuminated

Today's Extremes

State Highs State Lows

Community

WunderPhotos

Upload Photos

1,892,030 photos uploaded!

WunderBlog® & News

Nearby

Air Quality

  Air Quality AQ Index Pollutant
Not available.

Snow Depth

Station Depth Elevation

Earthquake Activity

City Distance Mag. Time & Date
Minimum magnitude displayed is 2.5.

Coastal Water Temperatures

Place Temperature

Stations

Nearby Weather Stations

Station Location Temp. Windchill Dew Point Humidity Wind Precip. Elev Updated Type
                   

Watches & Warnings

There are currently no watches in effect.